sensor_id;sensor_type;location;lat;lon;timestamp;P1;durP1;ratioP1;P2;durP2;ratioP2
19127;SDS011;9696;53.686;10.094;2024-02-21T00:02:24;33.00;;;11.47;;
19127;SDS011;9696;53.686;10.094;2024-02-21T00:04:54;24.57;;;11.53;;
19127;SDS011;9696;53.686;10.094;2024-02-21T00:07:23;24.90;;;12.17;;
19127;SDS011;9696;53.686;10.094;2024-02-21T00:09:51;26.10;;;11.57;;
19127;SDS011;9696;53.686;10.094;2024-02-21T00:12:20;24.63;;;11.33;;
19127;SDS011;9696;53.686;10.094;2024-02-21T00:14:48;33.57;;;11.80;;
19127;SDS011;9696;53.686;10.094;2024-02-21T00:17:17;26.87;;;10.60;;
19127;SDS011;9696;53.686;10.094;2024-02-21T00:19:46;28.10;;;12.23;;
19127;SDS011;9696;53.686;10.094;2024-02-21T00:22:16;29.30;;;11.37;;
19127;SDS011;9696;53.686;10.094;2024-02-21T00:24:44;29.07;;;11.83;;
19127;SDS011;9696;53.686;10.094;2024-02-21T00:27:13;26.87;;;12.07;;
19127;SDS011;9696;53.686;10.094;2024-02-21T00:29:41;30.43;;;12.17;;
19127;SDS011;9696;53.686;10.094;2024-02-21T00:32:10;38.93;;;13.83;;
19127;SDS011;9696;53.686;10.094;2024-02-21T00:34:38;33.00;;;13.13;;
19127;SDS011;9696;53.686;10.094;2024-02-21T00:37:07;29.03;;;12.67;;
19127;SDS011;9696;53.686;10.094;2024-02-21T00:39:39;28.57;;;11.33;;
19127;SDS011;9696;53.686;10.094;2024-02-21T00:42:09;33.47;;;12.30;;
19127;SDS011;9696;53.686;10.094;2024-02-21T00:44:37;29.57;;;13.37;;
19127;SDS011;9696;53.686;10.094;2024-02-21T00:47:06;31.80;;;13.23;;
19127;SDS011;9696;53.686;10.094;2024-02-21T00:49:34;38.40;;;14.17;;
19127;SDS011;9696;53.686;10.094;2024-02-21T00:52:03;34.23;;;12.80;;
19127;SDS011;9696;53.686;10.094;2024-02-21T00:54:32;30.27;;;11.77;;
19127;SDS011;9696;53.686;10.094;2024-02-21T00:57:17;30.70;;;12.70;;
19127;SDS011;9696;53.686;10.094;2024-02-21T00:59:46;37.73;;;14.13;;
19127;SDS011;9696;53.686;10.094;2024-02-21T01:02:14;35.33;;;13.67;;
19127;SDS011;9696;53.686;10.094;2024-02-21T01:04:44;30.37;;;13.70;;
19127;SDS011;9696;53.686;10.094;2024-02-21T01:07:13;38.03;;;15.80;;
19127;SDS011;9696;53.686;10.094;2024-02-21T01:09:41;27.63;;;13.37;;
19127;SDS011;9696;53.686;10.094;2024-02-21T01:12:10;31.20;;;14.57;;
19127;SDS011;9696;53.686;10.094;2024-02-21T01:14:40;37.57;;;14.73;;
19127;SDS011;9696;53.686;10.094;2024-02-21T01:17:09;32.33;;;14.20;;
19127;SDS011;9696;53.686;10.094;2024-02-21T01:19:38;31.67;;;14.33;;
19127;SDS011;9696;53.686;10.094;2024-02-21T01:22:06;36.37;;;13.27;;
19127;SDS011;9696;53.686;10.094;2024-02-21T01:24:35;31.03;;;13.90;;
19127;SDS011;9696;53.686;10.094;2024-02-21T01:27:04;28.67;;;12.77;;
19127;SDS011;9696;53.686;10.094;2024-02-21T01:29:32;25.43;;;12.27;;
19127;SDS011;9696;53.686;10.094;2024-02-21T01:32:03;28.87;;;12.43;;
19127;SDS011;9696;53.686;10.094;2024-02-21T01:34:31;29.40;;;13.47;;
19127;SDS011;9696;53.686;10.094;2024-02-21T01:37:00;31.93;;;13.77;;
19127;SDS011;9696;53.686;10.094;2024-02-21T01:39:31;34.03;;;13.70;;
19127;SDS011;9696;53.686;10.094;2024-02-21T01:41:59;27.73;;;12.53;;
19127;SDS011;9696;53.686;10.094;2024-02-21T01:44:28;25.40;;;11.03;;
19127;SDS011;9696;53.686;10.094;2024-02-21T01:46:57;25.33;;;12.37;;
19127;SDS011;9696;53.686;10.094;2024-02-21T01:49:27;28.20;;;13.00;;
19127;SDS011;9696;53.686;10.094;2024-02-21T01:51:55;30.10;;;11.10;;
19127;SDS011;9696;53.686;10.094;2024-02-21T01:54:24;23.97;;;11.90;;
19127;SDS011;9696;53.686;10.094;2024-02-21T01:56:55;31.53;;;11.73;;
19127;SDS011;9696;53.686;10.094;2024-02-21T01:59:24;19.33;;;10.23;;
19127;SDS011;9696;53.686;10.094;2024-02-21T02:01:53;22.90;;;10.37;;
19127;SDS011;9696;53.686;10.094;2024-02-21T02:04:24;25.80;;;11.67;;
19127;SDS011;9696;53.686;10.094;2024-02-21T02:06:55;22.57;;;11.77;;
19127;SDS011;9696;53.686;10.094;2024-02-21T02:09:24;21.30;;;10.17;;
19127;SDS011;9696;53.686;10.094;2024-02-21T02:11:52;21.23;;;8.87;;
19127;SDS011;9696;53.686;10.094;2024-02-21T02:14:21;23.03;;;10.43;;
19127;SDS011;9696;53.686;10.094;2024-02-21T02:16:50;29.30;;;10.70;;
19127;SDS011;9696;53.686;10.094;2024-02-21T02:19:19;23.00;;;10.10;;
19127;SDS011;9696;53.686;10.094;2024-02-21T02:21:49;22.57;;;10.47;;
19127;SDS011;9696;53.686;10.094;2024-02-21T02:24:21;25.80;;;10.60;;
19127;SDS011;9696;53.686;10.094;2024-02-21T02:26:50;19.40;;;10.53;;
19127;SDS011;9696;53.686;10.094;2024-02-21T02:29:19;18.87;;;10.57;;
19127;SDS011;9696;53.686;10.094;2024-02-21T02:31:48;27.10;;;8.93;;
19127;SDS011;9696;53.686;10.094;2024-02-21T02:34:17;25.30;;;11.43;;
19127;SDS011;9696;53.686;10.094;2024-02-21T02:36:46;33.17;;;11.83;;
19127;SDS011;9696;53.686;10.094;2024-02-21T02:39:15;21.40;;;10.67;;
19127;SDS011;9696;53.686;10.094;2024-02-21T02:41:45;18.03;;;9.47;;
19127;SDS011;9696;53.686;10.094;2024-02-21T02:44:14;26.37;;;10.83;;
19127;SDS011;9696;53.686;10.094;2024-02-21T02:46:43;24.40;;;11.27;;
19127;SDS011;9696;53.686;10.094;2024-02-21T02:49:11;23.80;;;12.23;;
19127;SDS011;9696;53.686;10.094;2024-02-21T02:51:41;26.30;;;11.37;;
19127;SDS011;9696;53.686;10.094;2024-02-21T02:54:10;29.17;;;12.10;;
19127;SDS011;9696;53.686;10.094;2024-02-21T02:56:39;32.40;;;12.30;;
19127;SDS011;9696;53.686;10.094;2024-02-21T02:59:09;26.80;;;12.03;;
19127;SDS011;9696;53.686;10.094;2024-02-21T03:01:37;29.67;;;14.50;;
19127;SDS011;9696;53.686;10.094;2024-02-21T03:04:06;32.17;;;15.67;;
19127;SDS011;9696;53.686;10.094;2024-02-21T03:06:35;24.70;;;12.60;;
19127;SDS011;9696;53.686;10.094;2024-02-21T03:09:03;25.23;;;11.40;;
19127;SDS011;9696;53.686;10.094;2024-02-21T03:11:35;31.60;;;13.17;;
19127;SDS011;9696;53.686;10.094;2024-02-21T03:14:04;32.70;;;13.53;;
19127;SDS011;9696;53.686;10.094;2024-02-21T03:16:34;34.53;;;12.33;;
19127;SDS011;9696;53.686;10.094;2024-02-21T03:19:03;32.30;;;14.30;;
19127;SDS011;9696;53.686;10.094;2024-02-21T03:21:31;33.50;;;13.50;;
19127;SDS011;9696;53.686;10.094;2024-02-21T03:24:00;37.73;;;14.80;;
19127;SDS011;9696;53.686;10.094;2024-02-21T03:26:29;28.93;;;14.23;;
19127;SDS011;9696;53.686;10.094;2024-02-21T03:28:57;37.17;;;13.67;;
19127;SDS011;9696;53.686;10.094;2024-02-21T03:31:26;31.20;;;13.80;;
19127;SDS011;9696;53.686;10.094;2024-02-21T03:33:59;29.07;;;13.70;;
19127;SDS011;9696;53.686;10.094;2024-02-21T03:36:28;33.80;;;14.47;;
19127;SDS011;9696;53.686;10.094;2024-02-21T03:38:56;28.30;;;11.37;;
19127;SDS011;9696;53.686;10.094;2024-02-21T03:41:26;27.80;;;13.23;;
19127;SDS011;9696;53.686;10.094;2024-02-21T03:43:55;32.97;;;13.03;;
19127;SDS011;9696;53.686;10.094;2024-02-21T03:46:23;31.13;;;12.77;;
19127;SDS011;9696;53.686;10.094;2024-02-21T03:48:52;26.37;;;12.27;;
19127;SDS011;9696;53.686;10.094;2024-02-21T03:51:22;27.07;;;13.00;;
19127;SDS011;9696;53.686;10.094;2024-02-21T03:53:51;22.33;;;11.83;;
19127;SDS011;9696;53.686;10.094;2024-02-21T03:56:19;33.23;;;11.40;;
19127;SDS011;9696;53.686;10.094;2024-02-21T03:58:48;20.47;;;10.83;;
19127;SDS011;9696;53.686;10.094;2024-02-21T04:01:16;32.93;;;11.93;;
19127;SDS011;9696;53.686;10.094;2024-02-21T04:03:45;23.10;;;11.60;;
19127;SDS011;9696;53.686;10.094;2024-02-21T04:06:14;27.43;;;11.27;;
19127;SDS011;9696;53.686;10.094;2024-02-21T04:08:44;26.60;;;11.40;;
19127;SDS011;9696;53.686;10.094;2024-02-21T04:11:13;26.83;;;11.80;;
19127;SDS011;9696;53.686;10.094;2024-02-21T04:13:42;28.57;;;11.77;;
19127;SDS011;9696;53.686;10.094;2024-02-21T04:16:10;28.07;;;11.77;;
19127;SDS011;9696;53.686;10.094;2024-02-21T04:18:39;31.13;;;11.40;;
19127;SDS011;9696;53.686;10.094;2024-02-21T04:21:07;18.50;;;9.17;;
19127;SDS011;9696;53.686;10.094;2024-02-21T04:23:35;24.67;;;11.20;;
19127;SDS011;9696;53.686;10.094;2024-02-21T04:26:05;24.33;;;10.20;;
19127;SDS011;9696;53.686;10.094;2024-02-21T04:28:34;24.37;;;11.13;;
19127;SDS011;9696;53.686;10.094;2024-02-21T04:31:02;20.43;;;9.70;;
19127;SDS011;9696;53.686;10.094;2024-02-21T04:33:31;25.97;;;11.43;;
19127;SDS011;9696;53.686;10.094;2024-02-21T04:35:59;23.93;;;11.00;;
19127;SDS011;9696;53.686;10.094;2024-02-21T04:38:28;19.57;;;9.07;;
19127;SDS011;9696;53.686;10.094;2024-02-21T04:40:57;19.80;;;9.13;;
19127;SDS011;9696;53.686;10.094;2024-02-21T04:43:27;27.60;;;11.70;;
19127;SDS011;9696;53.686;10.094;2024-02-21T04:45:56;12.00;;;6.43;;
19127;SDS011;9696;53.686;10.094;2024-02-21T04:48:24;18.23;;;9.77;;
19127;SDS011;9696;53.686;10.094;2024-02-21T04:50:53;19.17;;;8.87;;
19127;SDS011;9696;53.686;10.094;2024-02-21T04:53:21;27.57;;;11.03;;
19127;SDS011;9696;53.686;10.094;2024-02-21T04:55:50;17.80;;;9.70;;
19127;SDS011;9696;53.686;10.094;2024-02-21T04:58:19;21.93;;;10.33;;
19127;SDS011;9696;53.686;10.094;2024-02-21T05:00:49;16.50;;;6.87;;
19127;SDS011;9696;53.686;10.094;2024-02-21T05:03:18;16.83;;;9.73;;
19127;SDS011;9696;53.686;10.094;2024-02-21T05:05:47;18.07;;;9.10;;
19127;SDS011;9696;53.686;10.094;2024-02-21T05:08:16;17.40;;;8.37;;
19127;SDS011;9696;53.686;10.094;2024-02-21T05:10:44;19.53;;;9.60;;
19127;SDS011;9696;53.686;10.094;2024-02-21T05:13:13;15.30;;;8.17;;
19127;SDS011;9696;53.686;10.094;2024-02-21T05:15:42;12.57;;;7.23;;
19127;SDS011;9696;53.686;10.094;2024-02-21T05:18:12;15.43;;;8.00;;
19127;SDS011;9696;53.686;10.094;2024-02-21T05:20:41;11.93;;;7.17;;
19127;SDS011;9696;53.686;10.094;2024-02-21T05:23:09;10.93;;;6.27;;
19127;SDS011;9696;53.686;10.094;2024-02-21T05:25:38;11.37;;;5.90;;
19127;SDS011;9696;53.686;10.094;2024-02-21T05:28:07;10.13;;;6.03;;
19127;SDS011;9696;53.686;10.094;2024-02-21T05:30:35;13.27;;;6.30;;
19127;SDS011;9696;53.686;10.094;2024-02-21T05:33:04;11.00;;;5.83;;
19127;SDS011;9696;53.686;10.094;2024-02-21T05:35:35;8.70;;;5.23;;
19127;SDS011;9696;53.686;10.094;2024-02-21T05:38:03;9.30;;;4.73;;
19127;SDS011;9696;53.686;10.094;2024-02-21T05:40:38;8.30;;;4.80;;
19127;SDS011;9696;53.686;10.094;2024-02-21T05:43:06;9.33;;;5.37;;
19127;SDS011;9696;53.686;10.094;2024-02-21T05:45:35;11.30;;;4.97;;
19127;SDS011;9696;53.686;10.094;2024-02-21T05:48:04;7.63;;;3.73;;
19127;SDS011;9696;53.686;10.094;2024-02-21T05:50:34;11.97;;;5.37;;
19127;SDS011;9696;53.686;10.094;2024-02-21T05:53:03;7.13;;;3.80;;
19127;SDS011;9696;53.686;10.094;2024-02-21T05:55:32;11.50;;;3.83;;
19127;SDS011;9696;53.686;10.094;2024-02-21T05:58:01;7.40;;;3.73;;
19127;SDS011;9696;53.686;10.094;2024-02-21T06:00:30;5.83;;;3.80;;
19127;SDS011;9696;53.686;10.094;2024-02-21T06:02:58;7.70;;;4.13;;
19127;SDS011;9696;53.686;10.094;2024-02-21T06:05:28;5.43;;;3.40;;
19127;SDS011;9696;53.686;10.094;2024-02-21T06:07:59;10.60;;;4.50;;
19127;SDS011;9696;53.686;10.094;2024-02-21T06:10:28;6.73;;;3.90;;
19127;SDS011;9696;53.686;10.094;2024-02-21T06:12:56;9.10;;;3.97;;
19127;SDS011;9696;53.686;10.094;2024-02-21T06:15:25;4.80;;;3.30;;
19127;SDS011;9696;53.686;10.094;2024-02-21T06:17:54;4.43;;;2.80;;
19127;SDS011;9696;53.686;10.094;2024-02-21T06:20:22;8.03;;;3.60;;
19127;SDS011;9696;53.686;10.094;2024-02-21T06:22:51;5.93;;;2.57;;
19127;SDS011;9696;53.686;10.094;2024-02-21T06:25:21;5.53;;;3.00;;
19127;SDS011;9696;53.686;10.094;2024-02-21T06:27:50;5.40;;;2.67;;
19127;SDS011;9696;53.686;10.094;2024-02-21T06:30:18;4.23;;;3.03;;
19127;SDS011;9696;53.686;10.094;2024-02-21T06:32:47;11.77;;;2.97;;
19127;SDS011;9696;53.686;10.094;2024-02-21T06:35:16;4.40;;;2.80;;
19127;SDS011;9696;53.686;10.094;2024-02-21T06:37:45;4.87;;;2.67;;
19127;SDS011;9696;53.686;10.094;2024-02-21T06:40:20;2.87;;;2.20;;
19127;SDS011;9696;53.686;10.094;2024-02-21T06:42:50;2.60;;;2.10;;
19127;SDS011;9696;53.686;10.094;2024-02-21T06:45:19;2.53;;;1.80;;
19127;SDS011;9696;53.686;10.094;2024-02-21T06:47:47;4.07;;;2.10;;
19127;SDS011;9696;53.686;10.094;2024-02-21T06:50:16;4.57;;;2.03;;
19127;SDS011;9696;53.686;10.094;2024-02-21T06:52:45;4.67;;;1.97;;
19127;SDS011;9696;53.686;10.094;2024-02-21T06:55:13;3.90;;;2.37;;
19127;SDS011;9696;53.686;10.094;2024-02-21T06:57:43;7.80;;;2.17;;
19127;SDS011;9696;53.686;10.094;2024-02-21T07:00:13;8.23;;;1.90;;
19127;SDS011;9696;53.686;10.094;2024-02-21T07:02:42;4.43;;;1.87;;
19127;SDS011;9696;53.686;10.094;2024-02-21T07:05:11;3.53;;;1.80;;
19127;SDS011;9696;53.686;10.094;2024-02-21T07:07:40;4.67;;;1.80;;
19127;SDS011;9696;53.686;10.094;2024-02-21T07:10:09;2.50;;;1.60;;
19127;SDS011;9696;53.686;10.094;2024-02-21T07:12:38;3.90;;;1.70;;
19127;SDS011;9696;53.686;10.094;2024-02-21T07:15:12;3.10;;;1.50;;
19127;SDS011;9696;53.686;10.094;2024-02-21T07:17:41;3.53;;;1.80;;
19127;SDS011;9696;53.686;10.094;2024-02-21T07:20:10;2.57;;;1.53;;
19127;SDS011;9696;53.686;10.094;2024-02-21T07:22:39;3.57;;;1.60;;
19127;SDS011;9696;53.686;10.094;2024-02-21T07:25:07;2.00;;;1.47;;
19127;SDS011;9696;53.686;10.094;2024-02-21T07:27:36;3.90;;;1.70;;
19127;SDS011;9696;53.686;10.094;2024-02-21T07:30:05;2.33;;;1.53;;
19127;SDS011;9696;53.686;10.094;2024-02-21T07:32:35;1.80;;;1.43;;
19127;SDS011;9696;53.686;10.094;2024-02-21T07:35:04;1.80;;;1.33;;
19127;SDS011;9696;53.686;10.094;2024-02-21T07:37:37;3.10;;;1.30;;
19127;SDS011;9696;53.686;10.094;2024-02-21T07:40:06;1.77;;;1.43;;
19127;SDS011;9696;53.686;10.094;2024-02-21T07:42:35;1.40;;;1.20;;
19127;SDS011;9696;53.686;10.094;2024-02-21T07:45:04;8.93;;;1.87;;
19127;SDS011;9696;53.686;10.094;2024-02-21T07:47:32;3.67;;;1.57;;
19127;SDS011;9696;53.686;10.094;2024-02-21T07:50:02;4.20;;;2.27;;
19127;SDS011;9696;53.686;10.094;2024-02-21T07:52:31;4.73;;;2.40;;
19127;SDS011;9696;53.686;10.094;2024-02-21T07:55:00;4.53;;;2.00;;
19127;SDS011;9696;53.686;10.094;2024-02-21T07:57:29;8.80;;;2.40;;
19127;SDS011;9696;53.686;10.094;2024-02-21T07:59:58;10.27;;;2.40;;
19127;SDS011;9696;53.686;10.094;2024-02-21T08:02:26;7.17;;;2.63;;
19127;SDS011;9696;53.686;10.094;2024-02-21T08:04:55;7.87;;;2.93;;
19127;SDS011;9696;53.686;10.094;2024-02-21T08:07:28;8.20;;;2.73;;
19127;SDS011;9696;53.686;10.094;2024-02-21T08:09:57;9.17;;;2.27;;
19127;SDS011;9696;53.686;10.094;2024-02-21T08:12:26;9.30;;;2.50;;
19127;SDS011;9696;53.686;10.094;2024-02-21T08:14:54;7.80;;;1.83;;
19127;SDS011;9696;53.686;10.094;2024-02-21T08:17:23;8.10;;;2.33;;
19127;SDS011;9696;53.686;10.094;2024-02-21T08:19:51;11.83;;;2.13;;
19127;SDS011;9696;53.686;10.094;2024-02-21T08:22:20;9.70;;;3.07;;
19127;SDS011;9696;53.686;10.094;2024-02-21T08:24:53;18.10;;;3.10;;
19127;SDS011;9696;53.686;10.094;2024-02-21T08:27:22;13.20;;;2.70;;
19127;SDS011;9696;53.686;10.094;2024-02-21T08:29:51;10.73;;;2.70;;
19127;SDS011;9696;53.686;10.094;2024-02-21T08:32:19;11.03;;;2.60;;
19127;SDS011;9696;53.686;10.094;2024-02-21T08:34:48;11.17;;;2.27;;
19127;SDS011;9696;53.686;10.094;2024-02-21T08:37:16;7.03;;;2.17;;
19127;SDS011;9696;53.686;10.094;2024-02-21T08:39:48;12.33;;;2.13;;
19127;SDS011;9696;53.686;10.094;2024-02-21T08:42:17;8.53;;;2.30;;
19127;SDS011;9696;53.686;10.094;2024-02-21T08:44:46;28.70;;;3.63;;
19127;SDS011;9696;53.686;10.094;2024-02-21T08:47:15;6.87;;;2.03;;
19127;SDS011;9696;53.686;10.094;2024-02-21T08:49:43;5.90;;;1.80;;
19127;SDS011;9696;53.686;10.094;2024-02-21T08:52:12;11.20;;;1.87;;
19127;SDS011;9696;53.686;10.094;2024-02-21T08:54:40;14.37;;;3.03;;
19127;SDS011;9696;53.686;10.094;2024-02-21T08:57:09;6.93;;;2.03;;
19127;SDS011;9696;53.686;10.094;2024-02-21T08:59:41;10.17;;;2.47;;
19127;SDS011;9696;53.686;10.094;2024-02-21T09:02:10;19.03;;;3.50;;
19127;SDS011;9696;53.686;10.094;2024-02-21T09:04:39;14.43;;;2.20;;
19127;SDS011;9696;53.686;10.094;2024-02-21T09:07:07;7.60;;;2.03;;
19127;SDS011;9696;53.686;10.094;2024-02-21T09:09:36;16.23;;;4.00;;
19127;SDS011;9696;53.686;10.094;2024-02-21T09:12:06;15.43;;;3.10;;
19127;SDS011;9696;53.686;10.094;2024-02-21T09:14:37;11.83;;;2.10;;
19127;SDS011;9696;53.686;10.094;2024-02-21T09:17:07;29.17;;;3.30;;
19127;SDS011;9696;53.686;10.094;2024-02-21T09:19:36;13.30;;;2.30;;
19127;SDS011;9696;53.686;10.094;2024-02-21T09:22:04;8.17;;;2.17;;
19127;SDS011;9696;53.686;10.094;2024-02-21T09:24:33;6.50;;;1.43;;
19127;SDS011;9696;53.686;10.094;2024-02-21T09:27:02;6.30;;;1.80;;
19127;SDS011;9696;53.686;10.094;2024-02-21T09:29:30;15.47;;;2.70;;
19127;SDS011;9696;53.686;10.094;2024-02-21T09:31:59;14.33;;;2.10;;
19127;SDS011;9696;53.686;10.094;2024-02-21T09:34:31;10.43;;;1.70;;
19127;SDS011;9696;53.686;10.094;2024-02-21T09:37:00;13.50;;;2.70;;
19127;SDS011;9696;53.686;10.094;2024-02-21T09:39:28;12.33;;;2.00;;
19127;SDS011;9696;53.686;10.094;2024-02-21T09:41:58;13.93;;;2.70;;
19127;SDS011;9696;53.686;10.094;2024-02-21T09:44:29;10.93;;;2.50;;
19127;SDS011;9696;53.686;10.094;2024-02-21T09:47:02;15.60;;;2.67;;
19127;SDS011;9696;53.686;10.094;2024-02-21T09:49:33;3.67;;;1.70;;
19127;SDS011;9696;53.686;10.094;2024-02-21T09:52:05;9.32;;;2.45;;
19127;SDS011;9696;53.686;10.094;2024-02-21T09:54:34;7.73;;;1.87;;
19127;SDS011;9696;53.686;10.094;2024-02-21T09:57:03;16.13;;;2.50;;
19127;SDS011;9696;53.686;10.094;2024-02-21T09:59:32;9.60;;;2.40;;
19127;SDS011;9696;53.686;10.094;2024-02-21T10:02:01;16.80;;;2.60;;
19127;SDS011;9696;53.686;10.094;2024-02-21T10:04:30;10.47;;;2.17;;
19127;SDS011;9696;53.686;10.094;2024-02-21T10:07:01;9.47;;;2.03;;
19127;SDS011;9696;53.686;10.094;2024-02-21T10:09:30;6.13;;;2.30;;
19127;SDS011;9696;53.686;10.094;2024-02-21T10:12:07;14.67;;;2.20;;
19127;SDS011;9696;53.686;10.094;2024-02-21T10:14:36;12.13;;;2.27;;
19127;SDS011;9696;53.686;10.094;2024-02-21T10:17:05;10.00;;;2.43;;
19127;SDS011;9696;53.686;10.094;2024-02-21T10:19:37;7.40;;;1.57;;
19127;SDS011;9696;53.686;10.094;2024-02-21T10:22:09;3.80;;;1.57;;
19127;SDS011;9696;53.686;10.094;2024-02-21T10:24:38;7.17;;;1.27;;
19127;SDS011;9696;53.686;10.094;2024-02-21T10:27:08;3.37;;;1.37;;
19127;SDS011;9696;53.686;10.094;2024-02-21T10:29:38;7.63;;;1.67;;
19127;SDS011;9696;53.686;10.094;2024-02-21T10:32:07;2.93;;;1.20;;
19127;SDS011;9696;53.686;10.094;2024-02-21T10:34:36;9.23;;;1.70;;
19127;SDS011;9696;53.686;10.094;2024-02-21T10:37:05;3.83;;;1.47;;
19127;SDS011;9696;53.686;10.094;2024-02-21T10:39:35;5.33;;;1.30;;
19127;SDS011;9696;53.686;10.094;2024-02-21T10:42:04;1.50;;;0.93;;
19127;SDS011;9696;53.686;10.094;2024-02-21T10:44:36;4.03;;;2.00;;
19127;SDS011;9696;53.686;10.094;2024-02-21T10:47:07;4.73;;;1.57;;
19127;SDS011;9696;53.686;10.094;2024-02-21T10:49:36;3.77;;;1.73;;
19127;SDS011;9696;53.686;10.094;2024-02-21T10:52:09;5.30;;;1.93;;
19127;SDS011;9696;53.686;10.094;2024-02-21T10:54:45;5.10;;;2.13;;
19127;SDS011;9696;53.686;10.094;2024-02-21T10:57:14;4.63;;;2.73;;
19127;SDS011;9696;53.686;10.094;2024-02-21T10:59:44;7.93;;;3.27;;
19127;SDS011;9696;53.686;10.094;2024-02-21T11:02:13;5.83;;;3.70;;
19127;SDS011;9696;53.686;10.094;2024-02-21T11:04:42;8.50;;;4.10;;
19127;SDS011;9696;53.686;10.094;2024-02-21T11:07:11;8.17;;;4.70;;
19127;SDS011;9696;53.686;10.094;2024-02-21T11:09:40;7.60;;;4.53;;
19127;SDS011;9696;53.686;10.094;2024-02-21T11:12:10;9.70;;;5.27;;
19127;SDS011;9696;53.686;10.094;2024-02-21T11:14:39;13.27;;;5.23;;
19127;SDS011;9696;53.686;10.094;2024-02-21T11:17:14;12.03;;;5.83;;
19127;SDS011;9696;53.686;10.094;2024-02-21T11:19:45;13.23;;;6.90;;
19127;SDS011;9696;53.686;10.094;2024-02-21T11:22:14;12.33;;;6.63;;
19127;SDS011;9696;53.686;10.094;2024-02-21T11:24:44;13.30;;;7.10;;
19127;SDS011;9696;53.686;10.094;2024-02-21T11:27:14;23.90;;;8.07;;
19127;SDS011;9696;53.686;10.094;2024-02-21T11:29:43;17.70;;;9.53;;
19127;SDS011;9696;53.686;10.094;2024-02-21T11:32:14;20.47;;;9.37;;
19127;SDS011;9696;53.686;10.094;2024-02-21T11:34:52;18.20;;;9.30;;
19127;SDS011;9696;53.686;10.094;2024-02-21T11:37:23;21.43;;;9.10;;
19127;SDS011;9696;53.686;10.094;2024-02-21T11:39:53;20.30;;;10.33;;
19127;SDS011;9696;53.686;10.094;2024-02-21T11:42:23;22.93;;;10.47;;
19127;SDS011;9696;53.686;10.094;2024-02-21T11:44:53;20.63;;;11.50;;
19127;SDS011;9696;53.686;10.094;2024-02-21T11:47:23;22.37;;;10.90;;
19127;SDS011;9696;53.686;10.094;2024-02-21T11:49:52;22.40;;;10.37;;
19127;SDS011;9696;53.686;10.094;2024-02-21T11:52:21;18.77;;;9.47;;
19127;SDS011;9696;53.686;10.094;2024-02-21T11:54:52;21.90;;;10.17;;
19127;SDS011;9696;53.686;10.094;2024-02-21T11:57:22;22.33;;;10.07;;
19127;SDS011;9696;53.686;10.094;2024-02-21T11:59:51;21.10;;;10.13;;
19127;SDS011;9696;53.686;10.094;2024-02-21T12:02:25;19.17;;;8.33;;
19127;SDS011;9696;53.686;10.094;2024-02-21T12:04:55;16.67;;;8.03;;
19127;SDS011;9696;53.686;10.094;2024-02-21T12:07:24;17.30;;;7.67;;
19127;SDS011;9696;53.686;10.094;2024-02-21T12:09:58;19.20;;;8.33;;
19127;SDS011;9696;53.686;10.094;2024-02-21T12:12:29;16.93;;;7.87;;
19127;SDS011;9696;53.686;10.094;2024-02-21T12:15:02;19.83;;;8.37;;
19127;SDS011;9696;53.686;10.094;2024-02-21T12:17:32;12.67;;;6.83;;
19127;SDS011;9696;53.686;10.094;2024-02-21T12:20:01;16.33;;;7.70;;
19127;SDS011;9696;53.686;10.094;2024-02-21T12:22:32;20.97;;;7.73;;
19127;SDS011;9696;53.686;10.094;2024-02-21T12:25:02;25.27;;;7.33;;
19127;SDS011;9696;53.686;10.094;2024-02-21T12:27:35;12.73;;;5.80;;
19127;SDS011;9696;53.686;10.094;2024-02-21T12:30:04;16.30;;;7.60;;
19127;SDS011;9696;53.686;10.094;2024-02-21T12:32:36;15.07;;;6.47;;
19127;SDS011;9696;53.686;10.094;2024-02-21T12:35:05;14.80;;;6.47;;
19127;SDS011;9696;53.686;10.094;2024-02-21T12:37:34;13.57;;;6.50;;
19127;SDS011;9696;53.686;10.094;2024-02-21T12:40:06;13.03;;;7.13;;
19127;SDS011;9696;53.686;10.094;2024-02-21T12:42:38;16.93;;;7.43;;
19127;SDS011;9696;53.686;10.094;2024-02-21T12:45:07;18.00;;;7.40;;
19127;SDS011;9696;53.686;10.094;2024-02-21T12:47:36;15.03;;;6.70;;
19127;SDS011;9696;53.686;10.094;2024-02-21T12:50:06;17.30;;;7.57;;
19127;SDS011;9696;53.686;10.094;2024-02-21T12:52:35;16.77;;;6.80;;
19127;SDS011;9696;53.686;10.094;2024-02-21T12:55:04;13.53;;;6.13;;
19127;SDS011;9696;53.686;10.094;2024-02-21T12:57:32;13.83;;;7.10;;
19127;SDS011;9696;53.686;10.094;2024-02-21T13:00:03;11.47;;;6.23;;
19127;SDS011;9696;53.686;10.094;2024-02-21T13:02:35;12.77;;;6.67;;
19127;SDS011;9696;53.686;10.094;2024-02-21T13:05:06;15.97;;;6.57;;
19127;SDS011;9696;53.686;10.094;2024-02-21T13:07:35;15.23;;;6.10;;
19127;SDS011;9696;53.686;10.094;2024-02-21T13:10:04;9.67;;;6.03;;
19127;SDS011;9696;53.686;10.094;2024-02-21T13:12:33;22.33;;;6.97;;
19127;SDS011;9696;53.686;10.094;2024-02-21T13:15:03;11.20;;;6.17;;
19127;SDS011;9696;53.686;10.094;2024-02-21T13:17:31;18.13;;;6.53;;
19127;SDS011;9696;53.686;10.094;2024-02-21T13:20:00;18.63;;;7.73;;
19127;SDS011;9696;53.686;10.094;2024-02-21T13:22:29;13.83;;;6.57;;
19127;SDS011;9696;53.686;10.094;2024-02-21T13:24:58;17.40;;;7.63;;
19127;SDS011;9696;53.686;10.094;2024-02-21T13:27:27;14.40;;;7.83;;
19127;SDS011;9696;53.686;10.094;2024-02-21T13:29:55;17.10;;;7.27;;
19127;SDS011;9696;53.686;10.094;2024-02-21T13:32:26;14.97;;;7.27;;
19127;SDS011;9696;53.686;10.094;2024-02-21T13:34:55;19.43;;;8.43;;
19127;SDS011;9696;53.686;10.094;2024-02-21T13:37:26;18.87;;;7.87;;
19127;SDS011;9696;53.686;10.094;2024-02-21T13:39:55;21.90;;;8.23;;
19127;SDS011;9696;53.686;10.094;2024-02-21T13:42:24;14.63;;;7.80;;
19127;SDS011;9696;53.686;10.094;2024-02-21T13:44:54;18.00;;;8.87;;
19127;SDS011;9696;53.686;10.094;2024-02-21T13:47:23;20.33;;;8.37;;
19127;SDS011;9696;53.686;10.094;2024-02-21T13:49:53;17.63;;;8.07;;
19127;SDS011;9696;53.686;10.094;2024-02-21T13:52:22;16.93;;;8.20;;
19127;SDS011;9696;53.686;10.094;2024-02-21T13:54:53;19.50;;;8.37;;
19127;SDS011;9696;53.686;10.094;2024-02-21T13:57:21;16.07;;;8.27;;
19127;SDS011;9696;53.686;10.094;2024-02-21T13:59:50;16.50;;;8.33;;
19127;SDS011;9696;53.686;10.094;2024-02-21T14:02:18;19.00;;;7.77;;
19127;SDS011;9696;53.686;10.094;2024-02-21T14:04:47;14.30;;;7.80;;
19127;SDS011;9696;53.686;10.094;2024-02-21T14:07:17;18.20;;;8.47;;
19127;SDS011;9696;53.686;10.094;2024-02-21T14:09:46;15.50;;;7.83;;
19127;SDS011;9696;53.686;10.094;2024-02-21T14:12:15;15.70;;;7.67;;
19127;SDS011;9696;53.686;10.094;2024-02-21T14:14:47;21.90;;;8.93;;
19127;SDS011;9696;53.686;10.094;2024-02-21T14:17:16;15.83;;;7.30;;
19127;SDS011;9696;53.686;10.094;2024-02-21T14:19:45;22.43;;;8.60;;
19127;SDS011;9696;53.686;10.094;2024-02-21T14:22:14;20.40;;;10.57;;
19127;SDS011;9696;53.686;10.094;2024-02-21T14:24:43;21.53;;;9.10;;
19127;SDS011;9696;53.686;10.094;2024-02-21T14:27:12;22.47;;;8.90;;
19127;SDS011;9696;53.686;10.094;2024-02-21T14:29:41;16.10;;;8.43;;
19127;SDS011;9696;53.686;10.094;2024-02-21T14:32:10;16.27;;;7.27;;
19127;SDS011;9696;53.686;10.094;2024-02-21T14:34:41;18.83;;;7.53;;
19127;SDS011;9696;53.686;10.094;2024-02-21T14:37:10;23.10;;;8.03;;
19127;SDS011;9696;53.686;10.094;2024-02-21T14:39:38;21.50;;;9.43;;
19127;SDS011;9696;53.686;10.094;2024-02-21T14:42:08;26.07;;;8.10;;
19127;SDS011;9696;53.686;10.094;2024-02-21T14:44:37;17.70;;;8.03;;
19127;SDS011;9696;53.686;10.094;2024-02-21T14:47:06;22.23;;;9.23;;